<?xml version="1.0" encoding="UTF-8" standalone="no" ?>
<gpx xmlns="http://www.topografix.com/GPX/1/1" xmlns:xsi="http://www.w3.org/2001/XMLSchema-instance" xsi:schemaLocation="http://www.topografix.com/GPX/1/1 http://www.topografix.com/GPX/1/1/gpx.xsd" version="1.1" creator="VisuGPX - https://www.visugpx.com">
  <metadata>
    <name>parcours MCJ1</name>
  </metadata>
  <trk>
    <name><![CDATA[parcours MCJ1_2]]></name>
    <extensions>
      <line xmlns="http://www.topografix.com/GPX/gpx_style/0/2">
        <color>0000ff</color>
        <width>4</width>
      </line>
    </extensions>
    <trkseg>
      <trkpt lat="45.90001" lon="4.47175">
        <ele>568.59997558594</ele>
        <time>2022-05-29T14:01:44.328Z</time>
        <extensions>
          <visugpx:TrkExtension xmlns:visugpx="https://www.visugpx.com/editgpx/">
            <visugpx:node>3</visugpx:node>
            </visugpx:TrkExtension>
        </extensions>
      </trkpt>
      <trkpt lat="45.90008" lon="4.47185">
        <ele>570.40002441406</ele>
        <time>2022-05-29T14:01:52.617Z</time>
      </trkpt>
      <trkpt lat="45.90009" lon="4.47194">
        <ele>570.40002441406</ele>
        <time>2022-05-29T14:02:00.916Z</time>
      </trkpt>
      <trkpt lat="45.90013" lon="4.47205">
        <ele>570.40002441406</ele>
        <time>2022-05-29T14:02:09.230Z</time>
      </trkpt>
      <trkpt lat="45.90028" lon="4.47229">
        <ele>576.79998779297</ele>
        <time>2022-05-29T14:02:17.580Z</time>
      </trkpt>
      <trkpt lat="45.90037" lon="4.47256">
        <ele>579</ele>
        <time>2022-05-29T14:02:25.964Z</time>
      </trkpt>
      <trkpt lat="45.90031" lon="4.47254">
        <ele>580.20001220703</ele>
        <time>2022-05-29T14:02:34.358Z</time>
      </trkpt>
      <trkpt lat="45.90035" lon="4.47256">
        <ele>579</ele>
        <time>2022-05-29T14:02:42.760Z</time>
      </trkpt>
      <trkpt lat="45.90003" lon="4.47276">
        <ele>579</ele>
        <time>2022-05-29T14:02:51.218Z</time>
      </trkpt>
      <trkpt lat="45.89986" lon="4.47291">
        <ele>585.20001220703</ele>
        <time>2022-05-29T14:02:59.710Z</time>
      </trkpt>
      <trkpt lat="45.89979" lon="4.473">
        <ele>587</ele>
        <time>2022-05-29T14:03:08.217Z</time>
      </trkpt>
      <trkpt lat="45.8997" lon="4.47307">
        <ele>587</ele>
        <time>2022-05-29T14:03:16.739Z</time>
      </trkpt>
      <trkpt lat="45.89962" lon="4.47317">
        <ele>587</ele>
        <time>2022-05-29T14:03:25.279Z</time>
      </trkpt>
      <trkpt lat="45.89948" lon="4.47343">
        <ele>587</ele>
        <time>2022-05-29T14:03:33.856Z</time>
      </trkpt>
      <trkpt lat="45.89938" lon="4.47365">
        <ele>596.59997558594</ele>
        <time>2022-05-29T14:03:42.464Z</time>
      </trkpt>
      <trkpt lat="45.89936" lon="4.47375">
        <ele>597.40002441406</ele>
        <time>2022-05-29T14:03:51.084Z</time>
      </trkpt>
      <trkpt lat="45.89929" lon="4.47386">
        <ele>599</ele>
        <time>2022-05-29T14:03:59.721Z</time>
      </trkpt>
      <trkpt lat="45.89926" lon="4.47396">
        <ele>599.40002441406</ele>
        <time>2022-05-29T14:04:08.369Z</time>
      </trkpt>
      <trkpt lat="45.89913" lon="4.47417">
        <ele>599.40002441406</ele>
        <time>2022-05-29T14:04:17.050Z</time>
      </trkpt>
      <trkpt lat="45.89907" lon="4.47435">
        <ele>602.20001220703</ele>
        <time>2022-05-29T14:04:25.753Z</time>
      </trkpt>
      <trkpt lat="45.89889" lon="4.47465">
        <ele>602.79998779297</ele>
        <time>2022-05-29T14:04:34.501Z</time>
      </trkpt>
      <trkpt lat="45.89881" lon="4.47489">
        <ele>604.59997558594</ele>
        <time>2022-05-29T14:04:43.280Z</time>
      </trkpt>
      <trkpt lat="45.89854" lon="4.47531">
        <ele>603.59997558594</ele>
        <time>2022-05-29T14:04:52.124Z</time>
      </trkpt>
      <trkpt lat="45.89809" lon="4.47571">
        <ele>603.59997558594</ele>
        <time>2022-05-29T14:05:01.053Z</time>
      </trkpt>
      <trkpt lat="45.89804" lon="4.47578">
        <ele>603.59997558594</ele>
        <time>2022-05-29T14:05:09.994Z</time>
      </trkpt>
      <trkpt lat="45.89794" lon="4.47588">
        <ele>603.59997558594</ele>
        <time>2022-05-29T14:05:18.956Z</time>
      </trkpt>
      <trkpt lat="45.89782" lon="4.47603">
        <ele>603.59997558594</ele>
        <time>2022-05-29T14:05:27.944Z</time>
      </trkpt>
      <trkpt lat="45.89775" lon="4.47609">
        <ele>600.59997558594</ele>
        <time>2022-05-29T14:05:36.945Z</time>
      </trkpt>
      <trkpt lat="45.8977" lon="4.47611">
        <ele>600.59997558594</ele>
        <time>2022-05-29T14:05:45.954Z</time>
      </trkpt>
      <trkpt lat="45.89767" lon="4.4761">
        <ele>600.59997558594</ele>
        <time>2022-05-29T14:05:54.967Z</time>
      </trkpt>
      <trkpt lat="45.89763" lon="4.47615">
        <ele>600.59997558594</ele>
        <time>2022-05-29T14:06:03.990Z</time>
      </trkpt>
      <trkpt lat="45.89755" lon="4.47617">
        <ele>600.59997558594</ele>
        <time>2022-05-29T14:06:13.026Z</time>
      </trkpt>
      <trkpt lat="45.89737" lon="4.47631">
        <ele>598.40002441406</ele>
        <time>2022-05-29T14:06:22.096Z</time>
      </trkpt>
      <trkpt lat="45.89731" lon="4.4764">
        <ele>597.40002441406</ele>
        <time>2022-05-29T14:06:31.179Z</time>
      </trkpt>
      <trkpt lat="45.89726" lon="4.47644">
        <ele>597.40002441406</ele>
        <time>2022-05-29T14:06:40.272Z</time>
      </trkpt>
      <trkpt lat="45.89722" lon="4.47646">
        <ele>596.79998779297</ele>
        <time>2022-05-29T14:06:49.373Z</time>
      </trkpt>
      <trkpt lat="45.89719" lon="4.4765">
        <ele>596.79998779297</ele>
        <time>2022-05-29T14:06:58.479Z</time>
      </trkpt>
      <trkpt lat="45.89703" lon="4.47665">
        <ele>595.20001220703</ele>
        <time>2022-05-29T14:07:07.618Z</time>
      </trkpt>
      <trkpt lat="45.89698" lon="4.47674">
        <ele>594.79998779297</ele>
        <time>2022-05-29T14:07:16.770Z</time>
      </trkpt>
      <trkpt lat="45.8967" lon="4.47707">
        <ele>594.79998779297</ele>
        <time>2022-05-29T14:07:25.980Z</time>
      </trkpt>
      <trkpt lat="45.89637" lon="4.47767">
        <ele>594.79998779297</ele>
        <time>2022-05-29T14:07:35.278Z</time>
      </trkpt>
      <trkpt lat="45.89612" lon="4.47824">
        <ele>584.40002441406</ele>
        <time>2022-05-29T14:07:44.652Z</time>
      </trkpt>
      <trkpt lat="45.89601" lon="4.47844">
        <ele>584.40002441406</ele>
        <time>2022-05-29T14:07:54.056Z</time>
      </trkpt>
      <trkpt lat="45.89567" lon="4.47937">
        <ele>576.79998779297</ele>
        <time>2022-05-29T14:08:03.579Z</time>
      </trkpt>
      <trkpt lat="45.89562" lon="4.47958">
        <ele>575.40002441406</ele>
        <time>2022-05-29T14:08:13.127Z</time>
      </trkpt>
      <trkpt lat="45.89548" lon="4.47986">
        <ele>575.40002441406</ele>
        <time>2022-05-29T14:08:22.715Z</time>
      </trkpt>
      <trkpt lat="45.89538" lon="4.47993">
        <ele>574.79998779297</ele>
        <time>2022-05-29T14:08:32.320Z</time>
      </trkpt>
      <trkpt lat="45.89523" lon="4.48023">
        <ele>575.20001220703</ele>
        <time>2022-05-29T14:08:41.968Z</time>
      </trkpt>
      <trkpt lat="45.895" lon="4.48081">
        <ele>575.20001220703</ele>
        <time>2022-05-29T14:08:51.691Z</time>
      </trkpt>
      <trkpt lat="45.89474" lon="4.48125">
        <ele>574.59997558594</ele>
        <time>2022-05-29T14:09:01.480Z</time>
      </trkpt>
      <trkpt lat="45.89455" lon="4.48148">
        <ele>573.59997558594</ele>
        <time>2022-05-29T14:09:11.311Z</time>
      </trkpt>
      <trkpt lat="45.89449" lon="4.4815">
        <ele>574</ele>
        <time>2022-05-29T14:09:21.151Z</time>
      </trkpt>
      <trkpt lat="45.89432" lon="4.48148">
        <ele>575.59997558594</ele>
        <time>2022-05-29T14:09:31.018Z</time>
      </trkpt>
      <trkpt lat="45.89405" lon="4.48131">
        <ele>575.59997558594</ele>
        <time>2022-05-29T14:09:40.935Z</time>
      </trkpt>
      <trkpt lat="45.89391" lon="4.48116">
        <ele>576.59997558594</ele>
        <time>2022-05-29T14:09:50.879Z</time>
      </trkpt>
      <trkpt lat="45.89388" lon="4.48109">
        <ele>576.20001220703</ele>
        <time>2022-05-29T14:10:00.833Z</time>
      </trkpt>
      <trkpt lat="45.89389" lon="4.48117">
        <ele>574.20001220703</ele>
        <time>2022-05-29T14:10:10.796Z</time>
      </trkpt>
      <trkpt lat="45.89393" lon="4.48119">
        <ele>574.20001220703</ele>
        <time>2022-05-29T14:10:20.766Z</time>
      </trkpt>
      <trkpt lat="45.89396" lon="4.48127">
        <ele>577.20001220703</ele>
        <time>2022-05-29T14:10:30.747Z</time>
      </trkpt>
      <trkpt lat="45.894" lon="4.4813">
        <ele>577.20001220703</ele>
        <time>2022-05-29T14:10:40.734Z</time>
      </trkpt>
      <trkpt lat="45.89402" lon="4.48138">
        <ele>577.20001220703</ele>
        <time>2022-05-29T14:10:50.731Z</time>
      </trkpt>
      <trkpt lat="45.89404" lon="4.48137">
        <ele>577.20001220703</ele>
        <time>2022-05-29T14:11:00.732Z</time>
      </trkpt>
      <trkpt lat="45.89411" lon="4.48141">
        <ele>577.59997558594</ele>
        <time>2022-05-29T14:11:10.745Z</time>
      </trkpt>
      <trkpt lat="45.89433" lon="4.48165">
        <ele>577.59997558594</ele>
        <time>2022-05-29T14:11:20.802Z</time>
      </trkpt>
      <trkpt lat="45.89436" lon="4.48172">
        <ele>577.59997558594</ele>
        <time>2022-05-29T14:11:30.869Z</time>
      </trkpt>
      <trkpt lat="45.89438" lon="4.48176">
        <ele>574.79998779297</ele>
        <time>2022-05-29T14:11:40.941Z</time>
      </trkpt>
      <trkpt lat="45.89437" lon="4.48184">
        <ele>574.40002441406</ele>
        <time>2022-05-29T14:11:51.022Z</time>
      </trkpt>
      <trkpt lat="45.89432" lon="4.48194">
        <ele>574.40002441406</ele>
        <time>2022-05-29T14:12:01.117Z</time>
      </trkpt>
      <trkpt lat="45.89415" lon="4.48209">
        <ele>574.40002441406</ele>
        <time>2022-05-29T14:12:11.246Z</time>
      </trkpt>
      <trkpt lat="45.89403" lon="4.48228">
        <ele>574.40002441406</ele>
        <time>2022-05-29T14:12:21.402Z</time>
      </trkpt>
      <trkpt lat="45.89379" lon="4.48255">
        <ele>574.40002441406</ele>
        <time>2022-05-29T14:12:31.609Z</time>
      </trkpt>
      <trkpt lat="45.89373" lon="4.48257">
        <ele>567.79998779297</ele>
        <time>2022-05-29T14:12:41.825Z</time>
      </trkpt>
      <trkpt lat="45.89341" lon="4.4829">
        <ele>566.20001220703</ele>
        <time>2022-05-29T14:12:52.105Z</time>
      </trkpt>
      <trkpt lat="45.89326" lon="4.48309">
        <ele>566.20001220703</ele>
        <time>2022-05-29T14:13:02.419Z</time>
      </trkpt>
      <trkpt lat="45.89315" lon="4.48318">
        <ele>566.20001220703</ele>
        <time>2022-05-29T14:13:12.754Z</time>
      </trkpt>
      <trkpt lat="45.89306" lon="4.48329">
        <ele>562.59997558594</ele>
        <time>2022-05-29T14:13:23.108Z</time>
      </trkpt>
      <trkpt lat="45.89302" lon="4.48331">
        <ele>562.59997558594</ele>
        <time>2022-05-29T14:13:33.468Z</time>
      </trkpt>
      <trkpt lat="45.89263" lon="4.48379">
        <ele>559.79998779297</ele>
        <time>2022-05-29T14:13:43.912Z</time>
      </trkpt>
      <trkpt lat="45.89245" lon="4.48399">
        <ele>559.79998779297</ele>
        <time>2022-05-29T14:13:54.393Z</time>
      </trkpt>
      <trkpt lat="45.89204" lon="4.48433">
        <ele>553.40002441406</ele>
        <time>2022-05-29T14:14:04.952Z</time>
      </trkpt>
      <trkpt lat="45.89195" lon="4.48443">
        <ele>553.40002441406</ele>
        <time>2022-05-29T14:14:15.529Z</time>
      </trkpt>
      <trkpt lat="45.89184" lon="4.48466">
        <ele>551.59997558594</ele>
        <time>2022-05-29T14:14:26.138Z</time>
      </trkpt>
      <trkpt lat="45.89174" lon="4.48482">
        <ele>551.59997558594</ele>
        <time>2022-05-29T14:14:36.772Z</time>
      </trkpt>
      <trkpt lat="45.89173" lon="4.48491">
        <ele>549.20001220703</ele>
        <time>2022-05-29T14:14:47.416Z</time>
      </trkpt>
      <trkpt lat="45.89168" lon="4.48495">
        <ele>548.59997558594</ele>
        <time>2022-05-29T14:14:58.070Z</time>
      </trkpt>
      <trkpt lat="45.89168" lon="4.48499">
        <ele>548.59997558594</ele>
        <time>2022-05-29T14:15:08.728Z</time>
      </trkpt>
      <trkpt lat="45.89149" lon="4.48523">
        <ele>544.79998779297</ele>
        <time>2022-05-29T14:15:19.426Z</time>
      </trkpt>
      <trkpt lat="45.89141" lon="4.4854">
        <ele>543.79998779297</ele>
        <time>2022-05-29T14:15:30.148Z</time>
      </trkpt>
      <trkpt lat="45.89134" lon="4.48563">
        <ele>543.79998779297</ele>
        <time>2022-05-29T14:15:40.899Z</time>
      </trkpt>
      <trkpt lat="45.89133" lon="4.48574">
        <ele>543.79998779297</ele>
        <time>2022-05-29T14:15:51.662Z</time>
      </trkpt>
      <trkpt lat="45.89123" lon="4.486">
        <ele>543.79998779297</ele>
        <time>2022-05-29T14:16:02.458Z</time>
      </trkpt>
      <trkpt lat="45.89102" lon="4.48624">
        <ele>543.79998779297</ele>
        <time>2022-05-29T14:16:13.299Z</time>
      </trkpt>
      <trkpt lat="45.89093" lon="4.48638">
        <ele>529.59997558594</ele>
        <time>2022-05-29T14:16:24.162Z</time>
      </trkpt>
      <trkpt lat="45.89085" lon="4.48675">
        <ele>524.59997558594</ele>
        <time>2022-05-29T14:16:35.068Z</time>
      </trkpt>
      <trkpt lat="45.89085" lon="4.48693">
        <ele>524.59997558594</ele>
        <time>2022-05-29T14:16:45.995Z</time>
      </trkpt>
      <trkpt lat="45.89081" lon="4.48703">
        <ele>520.59997558594</ele>
        <time>2022-05-29T14:16:56.935Z</time>
      </trkpt>
      <trkpt lat="45.89074" lon="4.48732">
        <ele>517</ele>
        <time>2022-05-29T14:17:07.910Z</time>
      </trkpt>
      <trkpt lat="45.89071" lon="4.48751">
        <ele>513.40002441406</ele>
        <time>2022-05-29T14:17:18.906Z</time>
      </trkpt>
      <trkpt lat="45.89043" lon="4.48886">
        <ele>513.40002441406</ele>
        <time>2022-05-29T14:17:30.063Z</time>
      </trkpt>
      <trkpt lat="45.8904" lon="4.48889">
        <ele>494.39999389648</ele>
        <time>2022-05-29T14:17:41.225Z</time>
      </trkpt>
      <trkpt lat="45.89031" lon="4.4895">
        <ele>491.39999389648</ele>
        <time>2022-05-29T14:17:52.459Z</time>
      </trkpt>
      <trkpt lat="45.89021" lon="4.4899">
        <ele>486.39999389648</ele>
        <time>2022-05-29T14:18:03.741Z</time>
      </trkpt>
      <trkpt lat="45.89021" lon="4.49003">
        <ele>486.39999389648</ele>
        <time>2022-05-29T14:18:15.038Z</time>
      </trkpt>
      <trkpt lat="45.89035" lon="4.49011">
        <ele>486.39999389648</ele>
        <time>2022-05-29T14:18:26.360Z</time>
      </trkpt>
      <trkpt lat="45.89047" lon="4.4902">
        <ele>482.39999389648</ele>
        <time>2022-05-29T14:18:37.704Z</time>
      </trkpt>
      <trkpt lat="45.89053" lon="4.49023">
        <ele>482.20001220703</ele>
        <time>2022-05-29T14:18:49.058Z</time>
      </trkpt>
      <trkpt lat="45.8906" lon="4.49023">
        <ele>481.39999389648</ele>
        <time>2022-05-29T14:19:00.424Z</time>
      </trkpt>
      <trkpt lat="45.89068" lon="4.49026">
        <ele>480.60000610352</ele>
        <time>2022-05-29T14:19:11.804Z</time>
      </trkpt>
      <trkpt lat="45.89086" lon="4.49039">
        <ele>480.20001220703</ele>
        <time>2022-05-29T14:19:23.217Z</time>
      </trkpt>
      <trkpt lat="45.89089" lon="4.4904">
        <ele>480</ele>
        <time>2022-05-29T14:19:34.635Z</time>
      </trkpt>
      <trkpt lat="45.89093" lon="4.49044">
        <ele>480</ele>
        <time>2022-05-29T14:19:46.060Z</time>
      </trkpt>
      <trkpt lat="45.89111" lon="4.49052">
        <ele>479</ele>
        <time>2022-05-29T14:19:57.516Z</time>
      </trkpt>
      <trkpt lat="45.89113" lon="4.49057">
        <ele>478.60000610352</ele>
        <time>2022-05-29T14:20:08.978Z</time>
      </trkpt>
      <trkpt lat="45.89129" lon="4.49068">
        <ele>477.20001220703</ele>
        <time>2022-05-29T14:20:20.469Z</time>
      </trkpt>
      <trkpt lat="45.89135" lon="4.4907">
        <ele>477.20001220703</ele>
        <time>2022-05-29T14:20:31.970Z</time>
      </trkpt>
      <trkpt lat="45.89141" lon="4.49069">
        <ele>475.39999389648</ele>
        <time>2022-05-29T14:20:43.481Z</time>
      </trkpt>
      <trkpt lat="45.89154" lon="4.4907">
        <ele>474</ele>
        <time>2022-05-29T14:20:55.013Z</time>
      </trkpt>
      <trkpt lat="45.8916" lon="4.49074">
        <ele>473.39999389648</ele>
        <time>2022-05-29T14:21:06.557Z</time>
      </trkpt>
      <trkpt lat="45.8916" lon="4.49077">
        <ele>473</ele>
        <time>2022-05-29T14:21:18.104Z</time>
      </trkpt>
      <trkpt lat="45.89169" lon="4.49092">
        <ele>473</ele>
        <time>2022-05-29T14:21:29.673Z</time>
      </trkpt>
      <trkpt lat="45.89196" lon="4.49099">
        <ele>473</ele>
        <time>2022-05-29T14:21:41.287Z</time>
      </trkpt>
      <trkpt lat="45.8922" lon="4.49102">
        <ele>468.79998779297</ele>
        <time>2022-05-29T14:21:52.940Z</time>
      </trkpt>
      <trkpt lat="45.89226" lon="4.49095">
        <ele>468.79998779297</ele>
        <time>2022-05-29T14:22:04.607Z</time>
      </trkpt>
      <trkpt lat="45.89232" lon="4.49092">
        <ele>468.79998779297</ele>
        <time>2022-05-29T14:22:16.283Z</time>
      </trkpt>
      <trkpt lat="45.89234" lon="4.49093">
        <ele>468.79998779297</ele>
        <time>2022-05-29T14:22:27.963Z</time>
      </trkpt>
      <trkpt lat="45.89258" lon="4.49089">
        <ele>469.39999389648</ele>
        <time>2022-05-29T14:22:39.683Z</time>
      </trkpt>
      <trkpt lat="45.89269" lon="4.49092">
        <ele>469.60000610352</ele>
        <time>2022-05-29T14:22:51.421Z</time>
      </trkpt>
      <trkpt lat="45.89278" lon="4.49091">
        <ele>469.60000610352</ele>
        <time>2022-05-29T14:23:03.173Z</time>
      </trkpt>
      <trkpt lat="45.89282" lon="4.49093">
        <ele>469.60000610352</ele>
        <time>2022-05-29T14:23:14.933Z</time>
      </trkpt>
      <trkpt lat="45.89284" lon="4.49088">
        <ele>469.60000610352</ele>
        <time>2022-05-29T14:23:26.699Z</time>
      </trkpt>
      <trkpt lat="45.89289" lon="4.49086">
        <ele>469.60000610352</ele>
        <time>2022-05-29T14:23:38.474Z</time>
      </trkpt>
      <trkpt lat="45.89292" lon="4.49092">
        <ele>471.20001220703</ele>
        <time>2022-05-29T14:23:50.257Z</time>
      </trkpt>
      <trkpt lat="45.89301" lon="4.49102">
        <ele>471.79998779297</ele>
        <time>2022-05-29T14:24:02.058Z</time>
        <extensions>
          <visugpx:TrkExtension xmlns:visugpx="https://www.visugpx.com/editgpx/">
            <visugpx:node>1</visugpx:node>
            </visugpx:TrkExtension>
        </extensions>
      </trkpt>
      <trkpt lat="45.89296" lon="4.49072">
        <ele>470.3</ele>
      </trkpt>
      <trkpt lat="45.89286" lon="4.49084">
        <ele>469.6</ele>
      </trkpt>
      <trkpt lat="45.89284" lon="4.49085">
        <ele>469.4</ele>
      </trkpt>
      <trkpt lat="45.89277" lon="4.4909">
        <ele>469</ele>
      </trkpt>
      <trkpt lat="45.89269" lon="4.49097">
        <ele>468.8</ele>
      </trkpt>
      <trkpt lat="45.89258" lon="4.49093">
        <ele>468.8</ele>
      </trkpt>
      <trkpt lat="45.89224" lon="4.49094">
        <ele>468.3</ele>
      </trkpt>
      <trkpt lat="45.89215" lon="4.49095">
        <ele>468.3</ele>
      </trkpt>
      <trkpt lat="45.89203" lon="4.49093">
        <ele>468.8</ele>
      </trkpt>
      <trkpt lat="45.89189" lon="4.49094">
        <ele>469.1</ele>
      </trkpt>
      <trkpt lat="45.89168" lon="4.49101">
        <ele>469.6</ele>
      </trkpt>
      <trkpt lat="45.89164" lon="4.4909">
        <ele>470.7</ele>
      </trkpt>
      <trkpt lat="45.89161" lon="4.49082">
        <ele>471.5</ele>
      </trkpt>
      <trkpt lat="45.89156" lon="4.49076">
        <ele>472.5</ele>
      </trkpt>
      <trkpt lat="45.89151" lon="4.49076">
        <ele>472.8</ele>
      </trkpt>
      <trkpt lat="45.89142" lon="4.49077">
        <ele>473.3</ele>
      </trkpt>
      <trkpt lat="45.89131" lon="4.49076">
        <ele>473.9</ele>
      </trkpt>
      <trkpt lat="45.89108" lon="4.49059">
        <ele>476.8</ele>
      </trkpt>
      <trkpt lat="45.89073" lon="4.49034">
        <ele>479.9</ele>
      </trkpt>
      <trkpt lat="45.89061" lon="4.49027">
        <ele>480.9</ele>
      </trkpt>
      <trkpt lat="45.89052" lon="4.49023">
        <ele>481.5</ele>
      </trkpt>
      <trkpt lat="45.89038" lon="4.49017">
        <ele>482.2</ele>
      </trkpt>
      <trkpt lat="45.89031" lon="4.49015">
        <ele>482.4</ele>
      </trkpt>
      <trkpt lat="45.89022" lon="4.49016">
        <ele>482.2</ele>
      </trkpt>
      <trkpt lat="45.89012" lon="4.49017">
        <ele>481.9</ele>
      </trkpt>
      <trkpt lat="45.89" lon="4.49018">
        <ele>481.7</ele>
      </trkpt>
      <trkpt lat="45.88992" lon="4.49016">
        <ele>481</ele>
      </trkpt>
      <trkpt lat="45.88982" lon="4.49012">
        <ele>480.2</ele>
      </trkpt>
      <trkpt lat="45.88972" lon="4.49006">
        <ele>479.5</ele>
      </trkpt>
      <trkpt lat="45.88965" lon="4.49">
        <ele>479.2</ele>
      </trkpt>
      <trkpt lat="45.88957" lon="4.48992">
        <ele>478.8</ele>
      </trkpt>
      <trkpt lat="45.88949" lon="4.48982">
        <ele>478.2</ele>
      </trkpt>
      <trkpt lat="45.88943" lon="4.48971">
        <ele>477.8</ele>
      </trkpt>
      <trkpt lat="45.88938" lon="4.48959">
        <ele>477.3</ele>
      </trkpt>
      <trkpt lat="45.88934" lon="4.48949">
        <ele>477</ele>
      </trkpt>
      <trkpt lat="45.88929" lon="4.48929">
        <ele>476.5</ele>
      </trkpt>
      <trkpt lat="45.88926" lon="4.48918">
        <ele>476</ele>
      </trkpt>
      <trkpt lat="45.88924" lon="4.48891">
        <ele>475.6</ele>
      </trkpt>
      <trkpt lat="45.88923" lon="4.4887">
        <ele>475.4</ele>
      </trkpt>
      <trkpt lat="45.88922" lon="4.48859">
        <ele>475.2</ele>
      </trkpt>
      <trkpt lat="45.8892" lon="4.48851">
        <ele>475.1</ele>
      </trkpt>
      <trkpt lat="45.88916" lon="4.48839">
        <ele>474.7</ele>
      </trkpt>
      <trkpt lat="45.88911" lon="4.48824">
        <ele>474.7</ele>
      </trkpt>
      <trkpt lat="45.88883" lon="4.48772">
        <ele>475.2</ele>
      </trkpt>
      <trkpt lat="45.88869" lon="4.4875">
        <ele>476.1</ele>
      </trkpt>
      <trkpt lat="45.88857" lon="4.48732">
        <ele>477.1</ele>
      </trkpt>
      <trkpt lat="45.88831" lon="4.48699">
        <ele>477.2</ele>
      </trkpt>
      <trkpt lat="45.88809" lon="4.48673">
        <ele>476.9</ele>
      </trkpt>
      <trkpt lat="45.88793" lon="4.4865">
        <ele>476.1</ele>
      </trkpt>
      <trkpt lat="45.8877" lon="4.48618">
        <ele>474.6</ele>
      </trkpt>
      <trkpt lat="45.88758" lon="4.48598">
        <ele>474</ele>
      </trkpt>
      <trkpt lat="45.88754" lon="4.48586">
        <ele>474.4</ele>
      </trkpt>
      <trkpt lat="45.88752" lon="4.48577">
        <ele>474.6</ele>
      </trkpt>
      <trkpt lat="45.88752" lon="4.48567">
        <ele>474.9</ele>
      </trkpt>
      <trkpt lat="45.88752" lon="4.48555">
        <ele>475.3</ele>
      </trkpt>
      <trkpt lat="45.88755" lon="4.48536">
        <ele>475.2</ele>
      </trkpt>
      <trkpt lat="45.88759" lon="4.4852">
        <ele>475.1</ele>
      </trkpt>
      <trkpt lat="45.88761" lon="4.48513">
        <ele>474.9</ele>
      </trkpt>
      <trkpt lat="45.88762" lon="4.48508">
        <ele>474.7</ele>
      </trkpt>
      <trkpt lat="45.88769" lon="4.48486">
        <ele>474.8</ele>
      </trkpt>
      <trkpt lat="45.88773" lon="4.48469">
        <ele>474.9</ele>
      </trkpt>
      <trkpt lat="45.88773" lon="4.48456">
        <ele>474.4</ele>
      </trkpt>
      <trkpt lat="45.88771" lon="4.48439">
        <ele>473.7</ele>
      </trkpt>
      <trkpt lat="45.88764" lon="4.48404">
        <ele>473.5</ele>
      </trkpt>
      <trkpt lat="45.88756" lon="4.4837">
        <ele>473.7</ele>
      </trkpt>
      <trkpt lat="45.88737" lon="4.48291">
        <ele>474.7</ele>
      </trkpt>
      <trkpt lat="45.88733" lon="4.4827">
        <ele>475.4</ele>
      </trkpt>
      <trkpt lat="45.8873" lon="4.4823">
        <ele>476.1</ele>
      </trkpt>
      <trkpt lat="45.88731" lon="4.48221">
        <ele>476.2</ele>
      </trkpt>
      <trkpt lat="45.88731" lon="4.48215">
        <ele>476.1</ele>
      </trkpt>
      <trkpt lat="45.88734" lon="4.48198">
        <ele>476.2</ele>
      </trkpt>
      <trkpt lat="45.88741" lon="4.48172">
        <ele>475.8</ele>
      </trkpt>
      <trkpt lat="45.88751" lon="4.48107">
        <ele>469.7</ele>
      </trkpt>
      <trkpt lat="45.88757" lon="4.48068">
        <ele>466.6</ele>
      </trkpt>
      <trkpt lat="45.88763" lon="4.48039">
        <ele>464.9</ele>
      </trkpt>
      <trkpt lat="45.88767" lon="4.48018">
        <ele>463.4</ele>
      </trkpt>
      <trkpt lat="45.88783" lon="4.47971">
        <ele>461.4</ele>
      </trkpt>
      <trkpt lat="45.88785" lon="4.47965">
        <ele>461</ele>
      </trkpt>
      <trkpt lat="45.88793" lon="4.47946">
        <ele>459.8</ele>
      </trkpt>
      <trkpt lat="45.88799" lon="4.47932">
        <ele>459.5</ele>
      </trkpt>
      <trkpt lat="45.88803" lon="4.47919">
        <ele>459.6</ele>
      </trkpt>
      <trkpt lat="45.88804" lon="4.47905">
        <ele>459.7</ele>
      </trkpt>
      <trkpt lat="45.88804" lon="4.47891">
        <ele>459.7</ele>
      </trkpt>
      <trkpt lat="45.88803" lon="4.47882">
        <ele>460</ele>
      </trkpt>
      <trkpt lat="45.88797" lon="4.47852">
        <ele>462.3</ele>
      </trkpt>
      <trkpt lat="45.88795" lon="4.47841">
        <ele>463.5</ele>
      </trkpt>
      <trkpt lat="45.88795" lon="4.4783">
        <ele>464.8</ele>
      </trkpt>
      <trkpt lat="45.88797" lon="4.47803">
        <ele>467.1</ele>
      </trkpt>
      <trkpt lat="45.88799" lon="4.47788">
        <ele>467.6</ele>
      </trkpt>
      <trkpt lat="45.88808" lon="4.47736">
        <ele>470.6</ele>
      </trkpt>
      <trkpt lat="45.88809" lon="4.47726">
        <ele>471</ele>
      </trkpt>
      <trkpt lat="45.8881" lon="4.47718">
        <ele>471</ele>
      </trkpt>
      <trkpt lat="45.88812" lon="4.47711">
        <ele>470.7</ele>
      </trkpt>
      <trkpt lat="45.88815" lon="4.47704">
        <ele>470.5</ele>
      </trkpt>
      <trkpt lat="45.88824" lon="4.47692">
        <ele>469.8</ele>
      </trkpt>
      <trkpt lat="45.88839" lon="4.4768">
        <ele>468.6</ele>
      </trkpt>
      <trkpt lat="45.88841" lon="4.47679">
        <ele>468.6</ele>
      </trkpt>
      <trkpt lat="45.88842" lon="4.47678">
        <ele>468.5</ele>
      </trkpt>
      <trkpt lat="45.8889" lon="4.47642">
        <ele>464.6</ele>
      </trkpt>
      <trkpt lat="45.88905" lon="4.47631">
        <ele>464</ele>
      </trkpt>
      <trkpt lat="45.88907" lon="4.4763">
        <ele>463.9</ele>
      </trkpt>
      <trkpt lat="45.8895" lon="4.47602">
        <ele>461.9</ele>
      </trkpt>
      <trkpt lat="45.88959" lon="4.47598">
        <ele>462</ele>
      </trkpt>
      <trkpt lat="45.88966" lon="4.47594">
        <ele>461.8</ele>
      </trkpt>
      <trkpt lat="45.89017" lon="4.47561">
        <ele>457.8</ele>
      </trkpt>
      <trkpt lat="45.89025" lon="4.47554">
        <ele>457.7</ele>
      </trkpt>
      <trkpt lat="45.8903" lon="4.47544">
        <ele>457.8</ele>
      </trkpt>
      <trkpt lat="45.89032" lon="4.47537">
        <ele>457.9</ele>
      </trkpt>
      <trkpt lat="45.89033" lon="4.47531">
        <ele>458</ele>
      </trkpt>
      <trkpt lat="45.89031" lon="4.47522">
        <ele>458.3</ele>
      </trkpt>
      <trkpt lat="45.89027" lon="4.47511">
        <ele>458.6</ele>
      </trkpt>
      <trkpt lat="45.89018" lon="4.47491">
        <ele>458.8</ele>
      </trkpt>
      <trkpt lat="45.89002" lon="4.47454">
        <ele>460.8</ele>
      </trkpt>
      <trkpt lat="45.88998" lon="4.47443">
        <ele>461.5</ele>
      </trkpt>
      <trkpt lat="45.88995" lon="4.47431">
        <ele>461.5</ele>
      </trkpt>
      <trkpt lat="45.88993" lon="4.4742">
        <ele>461.7</ele>
      </trkpt>
      <trkpt lat="45.88991" lon="4.47396">
        <ele>462.7</ele>
      </trkpt>
      <trkpt lat="45.88986" lon="4.4737">
        <ele>462.5</ele>
      </trkpt>
      <trkpt lat="45.88985" lon="4.47367">
        <ele>462.4</ele>
      </trkpt>
      <trkpt lat="45.88981" lon="4.47355">
        <ele>462.6</ele>
      </trkpt>
      <trkpt lat="45.8896" lon="4.47317">
        <ele>465.4</ele>
      </trkpt>
      <trkpt lat="45.88952" lon="4.473">
        <ele>467</ele>
      </trkpt>
      <trkpt lat="45.88944" lon="4.47282">
        <ele>468.1</ele>
      </trkpt>
      <trkpt lat="45.88938" lon="4.47265">
        <ele>468.8</ele>
      </trkpt>
      <trkpt lat="45.88934" lon="4.47248">
        <ele>469.8</ele>
      </trkpt>
      <trkpt lat="45.88928" lon="4.47188">
        <ele>470.2</ele>
      </trkpt>
      <trkpt lat="45.88922" lon="4.47133">
        <ele>470.4</ele>
      </trkpt>
      <trkpt lat="45.88918" lon="4.4708">
        <ele>469.5</ele>
      </trkpt>
      <trkpt lat="45.88916" lon="4.47048">
        <ele>469.9</ele>
      </trkpt>
      <trkpt lat="45.88916" lon="4.47028">
        <ele>469.9</ele>
      </trkpt>
      <trkpt lat="45.88917" lon="4.47011">
        <ele>468.8</ele>
      </trkpt>
      <trkpt lat="45.88918" lon="4.47002">
        <ele>468.3</ele>
      </trkpt>
      <trkpt lat="45.88925" lon="4.46981">
        <ele>468.8</ele>
      </trkpt>
      <trkpt lat="45.88933" lon="4.46966">
        <ele>468.1</ele>
      </trkpt>
      <trkpt lat="45.88939" lon="4.46958">
        <ele>467.1</ele>
      </trkpt>
      <trkpt lat="45.88946" lon="4.46948">
        <ele>465.8</ele>
      </trkpt>
      <trkpt lat="45.88967" lon="4.46927">
        <ele>463.6</ele>
      </trkpt>
      <trkpt lat="45.88975" lon="4.46921">
        <ele>462.9</ele>
      </trkpt>
      <trkpt lat="45.8899" lon="4.46911">
        <ele>461.5</ele>
      </trkpt>
      <trkpt lat="45.88998" lon="4.46907">
        <ele>460.9</ele>
      </trkpt>
      <trkpt lat="45.89008" lon="4.46901">
        <ele>459.9</ele>
      </trkpt>
      <trkpt lat="45.89013" lon="4.46896">
        <ele>459</ele>
      </trkpt>
      <trkpt lat="45.8903" lon="4.46884">
        <ele>456.8</ele>
      </trkpt>
      <trkpt lat="45.89088" lon="4.46846">
        <ele>448.9</ele>
      </trkpt>
      <trkpt lat="45.89098" lon="4.46836">
        <ele>447.1</ele>
      </trkpt>
      <trkpt lat="45.89116" lon="4.46823">
        <ele>444.6</ele>
      </trkpt>
      <trkpt lat="45.89162" lon="4.46777">
        <ele>435.6</ele>
      </trkpt>
      <trkpt lat="45.89186" lon="4.46758">
        <ele>432</ele>
      </trkpt>
      <trkpt lat="45.89199" lon="4.46751">
        <ele>431.2</ele>
      </trkpt>
      <trkpt lat="45.89226" lon="4.46735">
        <ele>427.8</ele>
      </trkpt>
      <trkpt lat="45.8925" lon="4.46723">
        <ele>426.1</ele>
      </trkpt>
      <trkpt lat="45.89267" lon="4.46715">
        <ele>424.5</ele>
      </trkpt>
      <trkpt lat="45.89298" lon="4.46706">
        <ele>422.7</ele>
      </trkpt>
      <trkpt lat="45.89302" lon="4.46704">
        <ele>422.6</ele>
      </trkpt>
      <trkpt lat="45.89305" lon="4.46702">
        <ele>422.5</ele>
      </trkpt>
      <trkpt lat="45.89307" lon="4.467">
        <ele>422.6</ele>
      </trkpt>
      <trkpt lat="45.89313" lon="4.4669">
        <ele>423.1</ele>
      </trkpt>
      <trkpt lat="45.89323" lon="4.4667">
        <ele>423.7</ele>
      </trkpt>
      <trkpt lat="45.89334" lon="4.46649">
        <ele>423.8</ele>
      </trkpt>
      <trkpt lat="45.89363" lon="4.46607">
        <ele>423.8</ele>
      </trkpt>
      <trkpt lat="45.89372" lon="4.46597">
        <ele>424.2</ele>
      </trkpt>
      <trkpt lat="45.8938" lon="4.46583">
        <ele>424.4</ele>
      </trkpt>
      <trkpt lat="45.89392" lon="4.46577">
        <ele>426.2</ele>
      </trkpt>
      <trkpt lat="45.89404" lon="4.46564">
        <ele>426.7</ele>
      </trkpt>
      <trkpt lat="45.8942" lon="4.46552">
        <ele>427.3</ele>
      </trkpt>
      <trkpt lat="45.89469" lon="4.46523">
        <ele>431.2</ele>
      </trkpt>
      <trkpt lat="45.89476" lon="4.46521">
        <ele>432.3</ele>
      </trkpt>
      <trkpt lat="45.8949" lon="4.46519">
        <ele>434.8</ele>
      </trkpt>
      <trkpt lat="45.89497" lon="4.46514">
        <ele>435.5</ele>
      </trkpt>
      <trkpt lat="45.89506" lon="4.46503">
        <ele>435.5</ele>
      </trkpt>
      <trkpt lat="45.89536" lon="4.4648">
        <ele>438.9</ele>
      </trkpt>
      <trkpt lat="45.89554" lon="4.46469">
        <ele>440.7</ele>
      </trkpt>
      <trkpt lat="45.89591" lon="4.46452">
        <ele>443.7</ele>
      </trkpt>
      <trkpt lat="45.8961" lon="4.46447">
        <ele>445.2</ele>
      </trkpt>
      <trkpt lat="45.89613" lon="4.46446">
        <ele>445.4</ele>
      </trkpt>
      <trkpt lat="45.89616" lon="4.46448">
        <ele>445.9</ele>
      </trkpt>
      <trkpt lat="45.89618" lon="4.46445">
        <ele>445.6</ele>
      </trkpt>
      <trkpt lat="45.89625" lon="4.46432">
        <ele>445.6</ele>
      </trkpt>
      <trkpt lat="45.89627" lon="4.46426">
        <ele>445.5</ele>
      </trkpt>
      <trkpt lat="45.89628" lon="4.4642">
        <ele>445.3</ele>
      </trkpt>
      <trkpt lat="45.89626" lon="4.46399">
        <ele>447</ele>
      </trkpt>
      <trkpt lat="45.89627" lon="4.46397">
        <ele>447.3</ele>
      </trkpt>
      <trkpt lat="45.89619" lon="4.46391">
        <ele>447.3</ele>
      </trkpt>
      <trkpt lat="45.89603" lon="4.46366">
        <ele>451.9</ele>
      </trkpt>
      <trkpt lat="45.89586" lon="4.46362">
        <ele>452.8</ele>
      </trkpt>
      <trkpt lat="45.89577" lon="4.46357">
        <ele>453.9</ele>
      </trkpt>
      <trkpt lat="45.89573" lon="4.46348">
        <ele>455.7</ele>
      </trkpt>
      <trkpt lat="45.89567" lon="4.46334">
        <ele>458.3</ele>
      </trkpt>
      <trkpt lat="45.89562" lon="4.46324">
        <ele>460.2</ele>
      </trkpt>
      <trkpt lat="45.89556" lon="4.46313">
        <ele>462.4</ele>
      </trkpt>
      <trkpt lat="45.89548" lon="4.46305">
        <ele>464.4</ele>
      </trkpt>
      <trkpt lat="45.89539" lon="4.46299">
        <ele>466.2</ele>
      </trkpt>
      <trkpt lat="45.89577" lon="4.46262">
        <ele>476.3</ele>
      </trkpt>
      <trkpt lat="45.89585" lon="4.46252">
        <ele>479.6</ele>
      </trkpt>
      <trkpt lat="45.89623" lon="4.46211">
        <ele>496.1</ele>
      </trkpt>
      <trkpt lat="45.89648" lon="4.46186">
        <ele>505.4</ele>
      </trkpt>
      <trkpt lat="45.89663" lon="4.46177">
        <ele>509.6</ele>
      </trkpt>
      <trkpt lat="45.89676" lon="4.46172">
        <ele>512.4</ele>
      </trkpt>
      <trkpt lat="45.89688" lon="4.46166">
        <ele>515.5</ele>
      </trkpt>
      <trkpt lat="45.89698" lon="4.46158">
        <ele>519.6</ele>
      </trkpt>
      <trkpt lat="45.89731" lon="4.46135">
        <ele>531.6</ele>
      </trkpt>
      <trkpt lat="45.89751" lon="4.46124">
        <ele>538</ele>
      </trkpt>
      <trkpt lat="45.89769" lon="4.46113">
        <ele>544.1</ele>
      </trkpt>
      <trkpt lat="45.89776" lon="4.46113">
        <ele>545.1</ele>
      </trkpt>
      <trkpt lat="45.89844" lon="4.46145">
        <ele>545.6</ele>
      </trkpt>
      <trkpt lat="45.8986" lon="4.4616">
        <ele>543</ele>
      </trkpt>
      <trkpt lat="45.8988" lon="4.46176">
        <ele>540.5</ele>
      </trkpt>
      <trkpt lat="45.89889" lon="4.46184">
        <ele>538.8</ele>
      </trkpt>
      <trkpt lat="45.89904" lon="4.46191">
        <ele>537.9</ele>
      </trkpt>
      <trkpt lat="45.89917" lon="4.46198">
        <ele>536.9</ele>
      </trkpt>
      <trkpt lat="45.89928" lon="4.46206">
        <ele>535.7</ele>
      </trkpt>
      <trkpt lat="45.89937" lon="4.46216">
        <ele>533.4</ele>
      </trkpt>
      <trkpt lat="45.89945" lon="4.46227">
        <ele>530.8</ele>
      </trkpt>
      <trkpt lat="45.89948" lon="4.46236">
        <ele>529.2</ele>
      </trkpt>
      <trkpt lat="45.89962" lon="4.46242">
        <ele>532.3</ele>
      </trkpt>
      <trkpt lat="45.89974" lon="4.46252">
        <ele>534.3</ele>
      </trkpt>
      <trkpt lat="45.89985" lon="4.46263">
        <ele>536.7</ele>
      </trkpt>
      <trkpt lat="45.8999" lon="4.46271">
        <ele>537.3</ele>
      </trkpt>
      <trkpt lat="45.89995" lon="4.46283">
        <ele>537.3</ele>
        <extensions>
          <visugpx:TrkExtension xmlns:visugpx="https://www.visugpx.com/editgpx/">
            <visugpx:node>2</visugpx:node>
            </visugpx:TrkExtension>
        </extensions>
      </trkpt>
    </trkseg>
  </trk>
</gpx>